Time;durP1;ratioP1;P1;durP2;ratioP2;P2;SDS_P1;SDS_P2;PMS_P1;PMS_P2;Temp;Humidity;BMP_temperature;BMP_pressure;BME280_temperature;BME280_humidity;BME280_pressure;Samples;Min_cycle;Max_cycle;Signal;HPM_P1;HPM_P2
2021/05/17 00:01:28;;;;;;;1.75;0.63;;;;;;;;;;5022375;28;20188;-37
2021/05/17 00:03:54;;;;;;;2.55;1.10;;;;;;;;;;5017917;28;20039;-37
2021/05/17 00:06:19;;;;;;;1.73;0.95;;;;;;;;;;5017261;28;20037;-37
2021/05/17 00:08:46;;;;;;;2.13;1.02;;;;;;;;;;5018877;28;20049;-37
2021/05/17 00:11:11;;;;;;;1.35;0.93;;;;;;;;;;5016669;28;20036;-36
2021/05/17 00:13:37;;;;;;;1.50;0.82;;;;;;;;;;5018430;28;20033;-37
2021/05/17 00:16:02;;;;;;;2.38;1.35;;;;;;;;;;5017378;28;20176;-36
2021/05/17 00:18:28;;;;;;;1.58;0.70;;;;;;;;;;5016830;28;20029;-37
2021/05/17 00:20:53;;;;;;;3.63;2.15;;;;;;;;;;5014867;28;20026;-36
2021/05/17 00:23:18;;;;;;;3.17;1.40;;;;;;;;;;5017939;28;20046;-36
2021/05/17 00:25:44;;;;;;;5.25;1.67;;;;;;;;;;5017725;28;20038;-36
2021/05/17 00:28:09;;;;;;;17.92;2.17;;;;;;;;;;5017796;28;20030;-36
2021/05/17 00:30:35;;;;;;;2.03;1.00;;;;;;;;;;5022578;28;20128;-37
2021/05/17 00:33:01;;;;;;;3.53;1.42;;;;;;;;;;5015326;28;20044;-37
2021/05/17 00:35:27;;;;;;;1.30;0.90;;;;;;;;;;5014767;28;20121;-36
2021/05/17 00:37:53;;;;;;;1.45;0.70;;;;;;;;;;5017559;28;20109;-36
2021/05/17 00:40:19;;;;;;;1.50;0.77;;;;;;;;;;5019923;28;20188;-37
2021/05/17 00:42:45;;;;;;;0.75;0.50;;;;;;;;;;5015784;28;20030;-37
2021/05/17 00:45:12;;;;;;;1.80;0.95;;;;;;;;;;5017687;28;20054;-37
2021/05/17 00:47:42;;;;;;;0.75;0.52;;;;;;;;;;5018060;28;20042;-37
2021/05/17 00:50:09;;;;;;;1.52;0.52;;;;;;;;;;5021609;28;20033;-37
2021/05/17 00:52:34;;;;;;;3.92;1.70;;;;;;;;;;5024808;28;20120;-37
2021/05/17 00:55:00;;;;;;;2.75;1.73;;;;;;;;;;5024781;28;20394;-37
2021/05/17 00:57:25;;;;;;;10.63;1.98;;;;;;;;;;5023093;28;20068;-36
2021/05/17 00:59:51;;;;;;;2.67;0.93;;;;;;;;;;5023393;28;20038;-36
2021/05/17 01:02:16;;;;;;;9.27;2.47;;;;;;;;;;5019739;28;20503;-36
2021/05/17 01:04:41;;;;;;;4.35;1.58;;;;;;;;;;5019524;28;20018;-36
2021/05/17 01:07:07;;;;;;;5.28;2.20;;;;;;;;;;5020108;28;20044;-37
2021/05/17 01:09:34;;;;;;;3.70;1.83;;;;;;;;;;5019611;28;20033;-36
2021/05/17 01:11:59;;;;;;;1.52;0.95;;;;;;;;;;5021034;28;20038;-37
2021/05/17 01:14:25;;;;;;;5.55;1.25;;;;;;;;;;5016092;28;20434;-37
2021/05/17 01:16:54;;;;;;;3.35;1.23;;;;;;;;;;5018228;28;20033;-36
2021/05/17 01:19:43;;;;;;;3.55;2.15;;;;;;;;;;5020903;28;20280;-36
2021/05/17 01:22:21;;;;;;;2.38;1.42;;;;;;;;;;5018976;28;20107;-36
2021/05/17 01:24:47;;;;;;;3.25;1.45;;;;;;;;;;5015184;28;20196;-36
2021/05/17 01:27:12;;;;;;;1.55;1.13;;;;;;;;;;5014358;28;20482;-36
2021/05/17 01:29:38;;;;;;;5.53;1.42;;;;;;;;;;5016089;28;20040;-36
2021/05/17 01:32:04;;;;;;;3.67;1.77;;;;;;;;;;5020602;28;20029;-36
2021/05/17 01:34:29;;;;;;;10.85;1.85;;;;;;;;;;5018071;28;20038;-36
2021/05/17 01:36:56;;;;;;;5.65;0.90;;;;;;;;;;5023980;28;20026;-37
2021/05/17 01:39:25;;;;;;;2.78;1.63;;;;;;;;;;5021029;28;20569;-37
2021/05/17 01:41:54;;;;;;;1.67;0.85;;;;;;;;;;5024339;28;20502;-36
2021/05/17 01:44:23;;;;;;;5.82;1.90;;;;;;;;;;5021290;28;20033;-36
2021/05/17 01:46:49;;;;;;;1.38;0.93;;;;;;;;;;5023886;28;20505;-36
2021/05/17 01:49:14;;;;;;;5.05;1.20;;;;;;;;;;5020978;28;20033;-36
2021/05/17 01:51:43;;;;;;;3.30;1.83;;;;;;;;;;5021924;28;20037;-36
2021/05/17 01:54:09;;;;;;;4.25;1.98;;;;;;;;;;5025428;28;20045;-36
2021/05/17 01:56:34;;;;;;;2.10;0.90;;;;;;;;;;5023138;28;20037;-36
2021/05/17 01:59:00;;;;;;;2.65;1.05;;;;;;;;;;5023184;28;20030;-36
2021/05/17 02:01:25;;;;;;;3.00;1.20;;;;;;;;;;5021063;28;20033;-36
2021/05/17 02:03:51;;;;;;;1.58;1.00;;;;;;;;;;5020781;28;20127;-36
2021/05/17 02:06:17;;;;;;;1.65;1.23;;;;;;;;;;5023965;28;20078;-36
2021/05/17 02:08:43;;;;;;;1.40;0.63;;;;;;;;;;5023342;28;20025;-36
2021/05/17 02:11:10;;;;;;;4.45;1.15;;;;;;;;;;5022368;28;20040;-36
2021/05/17 02:13:36;;;;;;;3.47;1.10;;;;;;;;;;5016664;28;20061;-36
2021/05/17 02:16:02;;;;;;;1.08;0.68;;;;;;;;;;5019968;28;20487;-36
2021/05/17 02:18:27;;;;;;;3.88;1.55;;;;;;;;;;5018585;28;20045;-36
2021/05/17 02:20:52;;;;;;;1.48;1.00;;;;;;;;;;5017524;28;20033;-36
2021/05/17 02:23:18;;;;;;;2.00;1.38;;;;;;;;;;5018689;28;20506;-36
2021/05/17 02:25:48;;;;;;;2.80;0.90;;;;;;;;;;5021244;28;20034;-37
2021/05/17 02:28:13;;;;;;;6.28;1.23;;;;;;;;;;5021809;28;20480;-37
2021/05/17 02:30:39;;;;;;;5.32;2.65;;;;;;;;;;5020335;28;20163;-37
2021/05/17 02:33:05;;;;;;;4.22;1.27;;;;;;;;;;5019102;28;20034;-37
2021/05/17 02:35:30;;;;;;;4.88;1.77;;;;;;;;;;5019019;28;20037;-37
2021/05/17 02:37:56;;;;;;;2.60;1.02;;;;;;;;;;5020518;28;20391;-36
2021/05/17 02:40:22;;;;;;;4.63;2.05;;;;;;;;;;5018146;28;20084;-37
2021/05/17 02:42:48;;;;;;;3.00;1.08;;;;;;;;;;5021767;28;20108;-36
2021/05/17 02:45:14;;;;;;;3.05;1.25;;;;;;;;;;5021017;28;20105;-37
2021/05/17 02:47:40;;;;;;;2.65;1.45;;;;;;;;;;5021520;28;20030;-37
2021/05/17 02:50:07;;;;;;;4.07;1.67;;;;;;;;;;5014924;28;20586;-36
2021/05/17 02:52:33;;;;;;;2.05;0.88;;;;;;;;;;5017737;28;20107;-36
2021/05/17 02:55:01;;;;;;;2.10;1.45;;;;;;;;;;5018251;28;20486;-37
2021/05/17 02:57:35;;;;;;;2.45;0.80;;;;;;;;;;5016858;28;20037;-37
2021/05/17 03:00:11;;;;;;;12.10;2.20;;;;;;;;;;5019346;28;20453;-37
2021/05/17 03:03:00;;;;;;;2.40;1.27;;;;;;;;;;5020696;28;20096;-36
2021/05/17 03:05:26;;;;;;;7.50;2.67;;;;;;;;;;5019985;28;20029;-36
2021/05/17 03:08:01;;;;;;;5.68;2.58;;;;;;;;;;5023555;28;20032;-37
2021/05/17 03:10:28;;;;;;;6.43;1.73;;;;;;;;;;5020018;28;20080;-37
2021/05/17 03:12:54;;;;;;;1.98;1.48;;;;;;;;;;5020695;28;20034;-37
2021/05/17 03:15:20;;;;;;;11.63;1.63;;;;;;;;;;5022550;28;20065;-36
2021/05/17 03:17:46;;;;;;;13.63;4.47;;;;;;;;;;5020730;28;20061;-37
2021/05/17 03:20:11;;;;;;;10.90;2.38;;;;;;;;;;5016432;28;20037;-36
2021/05/17 03:22:36;;;;;;;2.72;1.77;;;;;;;;;;5019853;28;20033;-36
2021/05/17 03:25:04;;;;;;;7.05;1.70;;;;;;;;;;5016115;28;20041;-36
2021/05/17 03:27:29;;;;;;;3.05;1.55;;;;;;;;;;5018336;28;20034;-36
2021/05/17 03:29:55;;;;;;;4.40;1.50;;;;;;;;;;5016554;28;20502;-36
2021/05/17 03:32:20;;;;;;;2.70;2.35;;;;;;;;;;5015676;28;20045;-36
2021/05/17 03:34:45;;;;;;;11.73;1.30;;;;;;;;;;5019212;28;20048;-36
2021/05/17 03:37:11;;;;;;;3.15;0.70;;;;;;;;;;5019911;28;20053;-36
2021/05/17 03:39:36;;;;;;;4.50;1.00;;;;;;;;;;5017877;28;20403;-36
2021/05/17 03:42:02;;;;;;;3.95;1.65;;;;;;;;;;5016630;28;20116;-36
2021/05/17 03:44:27;;;;;;;2.17;1.38;;;;;;;;;;5017099;28;20021;-36
2021/05/17 03:46:53;;;;;;;5.05;2.25;;;;;;;;;;5018971;28;20154;-36
2021/05/17 03:49:18;;;;;;;1.85;0.90;;;;;;;;;;5012489;28;20040;-36
2021/05/17 03:51:43;;;;;;;3.47;2.75;;;;;;;;;;5016416;28;20030;-36
2021/05/17 03:54:09;;;;;;;2.60;1.38;;;;;;;;;;5014665;28;20033;-36
2021/05/17 03:56:34;;;;;;;5.93;1.27;;;;;;;;;;5015132;28;20047;-36
2021/05/17 03:58:59;;;;;;;4.05;2.00;;;;;;;;;;5015963;28;20038;-37
2021/05/17 04:01:25;;;;;;;6.43;1.90;;;;;;;;;;5016806;28;20034;-37
2021/05/17 04:03:52;;;;;;;3.67;1.45;;;;;;;;;;5016331;28;20658;-37
2021/05/17 04:14:23;;;;;;;7.07;2.15;;;;;;;;;;5016826;28;20036;-36
2021/05/17 04:16:48;;;;;;;4.90;2.78;;;;;;;;;;5019126;28;20046;-36
2021/05/17 04:19:13;;;;;;;3.78;1.52;;;;;;;;;;5017400;28;20030;-36
2021/05/17 04:21:39;;;;;;;5.07;1.63;;;;;;;;;;5018858;28;20091;-36
2021/05/17 04:24:05;;;;;;;6.10;2.08;;;;;;;;;;5015364;28;20068;-37
2021/05/17 04:26:30;;;;;;;3.30;1.40;;;;;;;;;;5017545;28;20048;-36
2021/05/17 04:28:56;;;;;;;3.00;1.83;;;;;;;;;;5016876;28;20034;-36
2021/05/17 04:31:21;;;;;;;7.05;2.80;;;;;;;;;;5016790;28;20022;-36
2021/05/17 04:33:46;;;;;;;6.93;2.30;;;;;;;;;;5019624;28;20017;-37
2021/05/17 04:36:12;;;;;;;3.70;1.75;;;;;;;;;;5020295;28;20586;-36
2021/05/17 04:38:37;;;;;;;3.70;2.05;;;;;;;;;;5021025;28;20029;-36
2021/05/17 04:41:03;;;;;;;2.53;1.05;;;;;;;;;;5021589;28;20363;-36
2021/05/17 04:43:28;;;;;;;7.15;2.22;;;;;;;;;;5019774;28;20033;-36
2021/05/17 04:45:53;;;;;;;4.85;4.38;;;;;;;;;;5019388;28;20471;-36
2021/05/17 04:48:19;;;;;;;13.15;2.80;;;;;;;;;;5017872;28;20589;-36
2021/05/17 04:50:44;;;;;;;4.93;1.88;;;;;;;;;;5015247;28;20172;-36
2021/05/17 04:53:09;;;;;;;4.32;2.22;;;;;;;;;;5017028;28;20116;-36
2021/05/17 04:55:35;;;;;;;7.55;2.20;;;;;;;;;;5017315;28;20415;-36
2021/05/17 04:58:00;;;;;;;13.80;2.75;;;;;;;;;;5017267;28;20034;-36
2021/05/17 05:00:26;;;;;;;4.88;2.47;;;;;;;;;;5018900;28;20049;-36
2021/05/17 05:02:51;;;;;;;4.65;1.42;;;;;;;;;;5020269;28;20069;-36
2021/05/17 05:05:16;;;;;;;4.18;1.58;;;;;;;;;;5015569;28;20482;-36
2021/05/17 05:07:42;;;;;;;4.05;2.60;;;;;;;;;;5012850;28;20048;-36
2021/05/17 05:10:07;;;;;;;3.83;2.33;;;;;;;;;;5016282;28;20443;-36
2021/05/17 05:12:33;;;;;;;6.38;2.60;;;;;;;;;;5017441;28;20065;-36
2021/05/17 05:14:58;;;;;;;5.20;1.48;;;;;;;;;;5017577;28;20467;-36
2021/05/17 05:17:23;;;;;;;7.03;1.52;;;;;;;;;;5014980;28;20088;-36
2021/05/17 05:19:49;;;;;;;19.35;2.38;;;;;;;;;;5013420;28;20037;-36
2021/05/17 05:22:14;;;;;;;10.60;2.25;;;;;;;;;;5015274;28;20026;-36
2021/05/17 05:24:40;;;;;;;11.65;2.83;;;;;;;;;;5011940;28;20053;-36
2021/05/17 05:29:52;;;;;;;18.65;2.33;;;;;;;;;;5016793;28;20087;-36
2021/05/17 05:33:07;;;;;;;12.98;3.33;;;;;;;;;;5017838;28;20034;-36
2021/05/17 05:35:06;;;;;;;7.20;2.47;;;;;;;;;;5011731;28;20037;-36
2021/05/17 05:37:31;;;;;;;9.90;1.77;;;;;;;;;;5019508;28;20475;-36
2021/05/17 05:39:57;;;;;;;3.83;0.90;;;;;;;;;;5022033;28;20079;-36
2021/05/17 05:42:24;;;;;;;8.00;1.15;;;;;;;;;;5021712;28;20056;-36
2021/05/17 05:44:49;;;;;;;15.52;2.47;;;;;;;;;;5023399;28;20103;-36
2021/05/17 05:47:16;;;;;;;6.90;2.13;;;;;;;;;;5022637;28;20479;-36
2021/05/17 05:49:42;;;;;;;6.80;2.83;;;;;;;;;;5023657;28;20034;-36
2021/05/17 05:52:07;;;;;;;5.72;1.92;;;;;;;;;;5019748;28;20030;-36
2021/05/17 05:54:32;;;;;;;5.60;1.77;;;;;;;;;;5021015;28;20037;-40
2021/05/17 05:56:58;;;;;;;4.63;2.63;;;;;;;;;;5021603;28;20052;-39
2021/05/17 05:59:23;;;;;;;5.15;2.35;;;;;;;;;;5021297;28;20108;-36
2021/05/17 06:01:48;;;;;;;12.68;2.53;;;;;;;;;;5021120;28;20402;-36
2021/05/17 06:04:13;;;;;;;7.40;1.80;;;;;;;;;;5016766;28;20490;-36
2021/05/17 06:06:39;;;;;;;9.65;2.28;;;;;;;;;;5018279;28;20128;-36
2021/05/17 06:09:04;;;;;;;12.30;2.13;;;;;;;;;;5022938;28;20108;-36
2021/05/17 06:11:30;;;;;;;3.13;2.10;;;;;;;;;;5023575;28;20446;-36
2021/05/17 06:13:55;;;;;;;7.47;3.13;;;;;;;;;;5019566;28;20018;-37
2021/05/17 06:16:20;;;;;;;12.13;2.53;;;;;;;;;;5018906;28;20109;-36
2021/05/17 06:18:46;;;;;;;19.27;2.33;;;;;;;;;;5023754;28;20505;-36
2021/05/17 06:21:11;;;;;;;2.05;1.33;;;;;;;;;;5022316;28;20121;-36
2021/05/17 06:23:37;;;;;;;7.63;2.00;;;;;;;;;;5026331;28;20048;-36
2021/05/17 06:26:02;;;;;;;3.42;1.60;;;;;;;;;;5020544;28;20046;-36
2021/05/17 06:28:28;;;;;;;15.85;1.75;;;;;;;;;;5018391;28;20112;-36
2021/05/17 06:30:57;;;;;;;6.75;2.92;;;;;;;;;;5019894;28;20029;-36
2021/05/17 06:33:23;;;;;;;16.75;2.80;;;;;;;;;;5019027;28;20434;-36
2021/05/17 06:35:57;;;;;;;21.60;3.58;;;;;;;;;;5021531;28;20030;-36
2021/05/17 06:38:23;;;;;;;18.40;6.55;;;;;;;;;;5020785;28;20128;-36
2021/05/17 06:40:48;;;;;;;34.55;11.13;;;;;;;;;;5016965;28;20030;-36
2021/05/17 06:43:14;;;;;;;58.47;14.23;;;;;;;;;;5017209;28;20041;-36
2021/05/17 06:45:40;;;;;;;14.40;4.30;;;;;;;;;;5021294;28;20037;-36
2021/05/17 06:48:06;;;;;;;20.17;4.13;;;;;;;;;;5018879;28;20037;-36
2021/05/17 06:50:32;;;;;;;14.35;3.10;;;;;;;;;;5016883;28;20041;-36
2021/05/17 06:52:57;;;;;;;4.05;2.60;;;;;;;;;;5021279;28;20052;-36
2021/05/17 06:55:27;;;;;;;3.78;1.67;;;;;;;;;;5023282;28;20172;-36
2021/05/17 07:00:30;;;;;;;10.15;2.20;;;;;;;;;;5020820;28;20131;-37
2021/05/17 07:02:59;;;;;;;10.07;3.90;;;;;;;;;;5022371;28;20108;-36
2021/05/17 07:05:25;;;;;;;6.53;2.30;;;;;;;;;;5021322;28;20084;-36
2021/05/17 07:11:32;;;;;;;11.43;3.17;;;;;;;;;;5022700;28;20433;-36
2021/05/17 07:13:23;;;;;;;11.40;2.83;;;;;;;;;;5019089;28;20052;-36
2021/05/17 07:15:49;;;;;;;7.68;3.60;;;;;;;;;;5018695;28;20030;-36
2021/05/17 07:18:14;;;;;;;6.38;1.50;;;;;;;;;;5020426;28;20045;-36
2021/05/17 07:25:56;;;;;;;12.85;2.05;;;;;;;;;;5019817;28;20041;-36
2021/05/17 07:28:21;;;;;;;6.78;2.80;;;;;;;;;;5020980;28;20029;-36
2021/05/17 07:30:47;;;;;;;5.43;1.95;;;;;;;;;;5024105;28;20454;-36
2021/05/17 07:33:13;;;;;;;5.53;2.00;;;;;;;;;;5019963;28;20120;-38
2021/05/17 07:35:38;;;;;;;4.25;1.60;;;;;;;;;;5017989;28;20113;-37
2021/05/17 07:38:04;;;;;;;3.65;1.85;;;;;;;;;;5019571;28;20057;-38
2021/05/17 07:40:30;;;;;;;4.75;1.48;;;;;;;;;;5019214;28;20057;-39
2021/05/17 07:42:55;;;;;;;14.07;3.13;;;;;;;;;;5018837;28;20049;-39
2021/05/17 07:45:20;;;;;;;2.58;1.63;;;;;;;;;;5022278;28;20025;-38
2021/05/17 07:47:46;;;;;;;3.60;1.98;;;;;;;;;;5018413;28;20041;-39
2021/05/17 07:50:11;;;;;;;5.18;2.33;;;;;;;;;;5017284;28;20050;-38
2021/05/17 07:52:37;;;;;;;6.82;2.20;;;;;;;;;;5014035;28;20046;-39
2021/05/17 07:55:03;;;;;;;17.45;4.05;;;;;;;;;;5016368;28;20034;-39
2021/05/17 07:57:29;;;;;;;13.68;3.30;;;;;;;;;;5016378;28;20040;-38
2021/05/17 07:59:54;;;;;;;7.05;2.47;;;;;;;;;;5017445;28;20525;-38
2021/05/17 08:02:22;;;;;;;4.30;2.17;;;;;;;;;;5015477;28;20038;-40
2021/05/17 08:04:50;;;;;;;6.30;2.40;;;;;;;;;;5018323;28;20087;-37
2021/05/17 08:07:16;;;;;;;6.88;3.55;;;;;;;;;;5018722;28;20116;-37
2021/05/17 08:09:41;;;;;;;4.60;2.38;;;;;;;;;;5015772;28;20113;-40
2021/05/17 08:12:06;;;;;;;7.40;2.53;;;;;;;;;;5019278;28;20033;-40
2021/05/17 08:14:32;;;;;;;8.90;2.55;;;;;;;;;;5017765;28;20041;-39
2021/05/17 08:16:57;;;;;;;4.43;2.05;;;;;;;;;;5018386;28;20649;-38
2021/05/17 08:19:22;;;;;;;4.90;2.30;;;;;;;;;;5017301;28;20092;-40
2021/05/17 08:21:48;;;;;;;21.52;2.70;;;;;;;;;;5017373;28;20037;-39
2021/05/17 08:24:13;;;;;;;9.95;2.92;;;;;;;;;;5014778;28;20083;-39
2021/05/17 08:26:40;;;;;;;5.72;3.38;;;;;;;;;;5014274;28;20494;-40
2021/05/17 08:29:06;;;;;;;19.77;3.53;;;;;;;;;;5016517;28;20459;-39
2021/05/17 08:31:31;;;;;;;2.70;1.45;;;;;;;;;;5015842;28;20029;-38
2021/05/17 08:33:57;;;;;;;15.02;4.03;;;;;;;;;;5014260;28;20068;-39
2021/05/17 08:36:22;;;;;;;9.15;1.63;;;;;;;;;;5014133;28;20501;-38
2021/05/17 08:38:47;;;;;;;19.67;3.22;;;;;;;;;;5018060;28;20030;-37
2021/05/17 08:41:13;;;;;;;6.70;1.40;;;;;;;;;;5018448;28;20501;-39
2021/05/17 08:43:40;;;;;;;8.07;1.83;;;;;;;;;;5014875;28;20494;-40
2021/05/17 08:46:05;;;;;;;3.05;1.05;;;;;;;;;;5013857;28;20033;-40
2021/05/17 08:48:31;;;;;;;20.17;2.22;;;;;;;;;;5016106;28;20479;-40
2021/05/17 08:50:56;;;;;;;12.40;2.83;;;;;;;;;;5016284;28;20040;-41
2021/05/17 08:53:21;;;;;;;6.05;2.22;;;;;;;;;;5015944;28;20412;-41
2021/05/17 08:55:46;;;;;;;8.73;1.80;;;;;;;;;;5013718;28;20406;-41
2021/05/17 08:58:12;;;;;;;7.18;2.72;;;;;;;;;;5013602;28;20626;-40
2021/05/17 09:00:37;;;;;;;16.25;3.88;;;;;;;;;;5017309;28;20540;-41
2021/05/17 09:03:02;;;;;;;10.15;3.35;;;;;;;;;;5015375;28;20033;-41
2021/05/17 09:05:32;;;;;;;14.55;5.15;;;;;;;;;;5018150;28;20696;-46
2021/05/17 09:08:01;;;;;;;11.90;4.07;;;;;;;;;;5017088;28;20034;-44
2021/05/17 09:10:36;;;;;;;17.42;3.58;;;;;;;;;;5018536;28;20104;-43
2021/05/17 09:13:03;;;;;;;14.00;3.88;;;;;;;;;;5017925;28;20045;-43
2021/05/17 09:15:30;;;;;;;2.67;1.30;;;;;;;;;;5016297;28;20049;-42
2021/05/17 09:17:56;;;;;;;9.68;2.50;;;;;;;;;;5017157;28;20521;-44
2021/05/17 09:20:33;;;;;;;5.82;2.22;;;;;;;;;;5021576;28;20103;-43
2021/05/17 09:23:09;;;;;;;6.05;2.03;;;;;;;;;;5019659;28;20030;-43
2021/05/17 09:25:35;;;;;;;4.63;1.15;;;;;;;;;;5022049;28;20455;-42
2021/05/17 09:28:02;;;;;;;8.30;2.72;;;;;;;;;;5019468;28;20029;-43
2021/05/17 09:30:43;;;;;;;23.80;5.07;;;;;;;;;;5022508;28;20079;-43
2021/05/17 09:33:12;;;;;;;8.77;2.53;;;;;;;;;;5020143;28;20044;-43
2021/05/17 09:35:38;;;;;;;9.63;4.85;;;;;;;;;;5017800;28;20578;-48
2021/05/17 09:38:06;;;;;;;3.47;1.95;;;;;;;;;;5018999;28;20116;-43
2021/05/17 09:40:33;;;;;;;20.63;5.10;;;;;;;;;;5018793;28;20381;-45
2021/05/17 09:43:08;;;;;;;5.97;1.80;;;;;;;;;;5021282;28;20038;-46
2021/05/17 09:45:34;;;;;;;4.57;1.83;;;;;;;;;;5020144;28;20411;-44
2021/05/17 09:47:59;;;;;;;8.57;2.22;;;;;;;;;;5017389;28;20041;-42
2021/05/17 09:50:25;;;;;;;13.23;4.28;;;;;;;;;;5018627;28;20030;-43
2021/05/17 09:52:50;;;;;;;20.50;4.43;;;;;;;;;;5020254;28;20041;-46
2021/05/17 09:55:15;;;;;;;4.03;1.40;;;;;;;;;;5019911;28;20096;-45
2021/05/17 09:57:42;;;;;;;29.63;4.32;;;;;;;;;;5019130;28;20033;-43
2021/05/17 10:00:22;;;;;;;8.45;4.00;;;;;;;;;;5017544;28;20557;-42
2021/05/17 10:02:51;;;;;;;30.73;6.05;;;;;;;;;;5018815;28;20049;-42
2021/05/17 10:05:35;;;;;;;5.50;2.20;;;;;;;;;;5018529;28;20026;-45
2021/05/17 10:08:00;;;;;;;9.40;4.63;;;;;;;;;;5014717;28;20087;-43
2021/05/17 10:10:28;;;;;;;7.22;2.08;;;;;;;;;;5020636;28;20025;-44
2021/05/17 10:12:54;;;;;;;7.40;2.50;;;;;;;;;;5016551;28;20060;-42
2021/05/17 10:15:20;;;;;;;9.10;3.83;;;;;;;;;;5016321;28;20516;-45
2021/05/17 10:17:46;;;;;;;9.27;2.95;;;;;;;;;;5016334;28;20043;-46
2021/05/17 10:20:15;;;;;;;4.65;2.17;;;;;;;;;;5014127;28;20034;-46
2021/05/17 10:22:41;;;;;;;10.73;3.55;;;;;;;;;;5015109;28;20045;-49
2021/05/17 10:25:07;;;;;;;9.85;2.35;;;;;;;;;;5015983;28;20415;-48
2021/05/17 10:27:38;;;;;;;11.77;2.25;;;;;;;;;;5017312;28;20091;-45
2021/05/17 10:30:03;;;;;;;;;;;;;;;;;;5018939;28;20112;-42
2021/05/17 10:32:38;;;;;;;3.70;1.13;;;;;;;;;;5016300;28;20401;-49
2021/05/17 10:35:12;;;;;;;5.50;1.48;;;;;;;;;;5015067;28;20487;-44
2021/05/17 10:37:38;;;;;;;9.48;2.67;;;;;;;;;;5020392;28;20041;-43
2021/05/17 10:40:05;;;;;;;6.45;2.17;;;;;;;;;;4998907;28;20438;-42
2021/05/17 10:42:43;;;;;;;10.52;2.97;;;;;;;;;;5019360;28;20112;-45
2021/05/17 10:48:18;;;;;;;10.27;2.60;;;;;;;;;;5017794;28;20033;-44
2021/05/17 10:51:06;;;;;;;9.80;2.50;;;;;;;;;;5010491;28;20025;-42
2021/05/17 10:54:01;;;;;;;3.42;2.17;;;;;;;;;;5013076;28;20761;-41
2021/05/17 10:56:55;;;;;;;16.90;2.55;;;;;;;;;;5012591;28;20045;-43
2021/05/17 11:02:34;;;;;;;16.08;4.10;;;;;;;;;;5016105;28;20096;-45
2021/05/17 11:05:18;;;;;;;131.93;21.05;;;;;;;;;;5017274;28;20060;-43
2021/05/17 11:07:54;;;;;;;15.85;2.58;;;;;;;;;;5018241;28;20026;-43
2021/05/17 11:10:26;;;;;;;6.43;1.90;;;;;;;;;;5015713;28;20485;-42
2021/05/17 11:12:55;;;;;;;13.90;3.88;;;;;;;;;;5017847;28;20061;-41
2021/05/17 11:15:22;;;;;;;6.03;3.75;;;;;;;;;;5016005;28;20037;-46
2021/05/17 11:17:50;;;;;;;9.15;3.70;;;;;;;;;;5016144;28;20037;-42
2021/05/17 11:20:34;;;;;;;8.35;2.17;;;;;;;;;;5015679;28;20029;-43
2021/05/17 11:22:59;;;;;;;11.20;2.53;;;;;;;;;;5018002;28;20034;-45
2021/05/17 11:25:43;;;;;;;4.22;2.35;;;;;;;;;;5015257;28;20038;-44
2021/05/17 11:28:08;;;;;;;11.68;4.07;;;;;;;;;;5017823;28;20033;-41
2021/05/17 11:30:41;;;;;;;6.60;2.95;;;;;;;;;;5014549;28;20045;-43
2021/05/17 11:33:13;;;;;;;8.27;4.53;;;;;;;;;;5015141;28;20025;-42
2021/05/17 11:35:57;;;;;;;14.73;2.40;;;;;;;;;;5014323;28;20129;-45
2021/05/17 11:38:22;;;;;;;10.82;2.17;;;;;;;;;;5019690;28;20040;-41
2021/05/17 11:40:50;;;;;;;6.95;3.35;;;;;;;;;;5014085;28;20411;-39
2021/05/17 11:43:15;;;;;;;14.32;1.33;;;;;;;;;;5016632;28;20050;-38
2021/05/17 11:45:41;;;;;;;10.52;3.03;;;;;;;;;;5016597;28;20048;-40
2021/05/17 11:48:06;;;;;;;5.28;1.70;;;;;;;;;;5016616;28;20044;-38
2021/05/17 11:50:31;;;;;;;12.27;3.30;;;;;;;;;;5016895;28;20098;-38
2021/05/17 11:52:57;;;;;;;10.93;3.65;;;;;;;;;;5014673;28;20040;-39
2021/05/17 11:55:22;;;;;;;8.82;2.90;;;;;;;;;;5011335;28;20048;-39
2021/05/17 11:57:48;;;;;;;9.02;2.65;;;;;;;;;;5015458;28;20529;-40
2021/05/17 12:00:15;;;;;;;8.18;2.92;;;;;;;;;;5014118;28;20612;-39
2021/05/17 12:02:44;;;;;;;16.02;3.95;;;;;;;;;;5012613;28;20045;-41
2021/05/17 12:05:09;;;;;;;7.25;2.45;;;;;;;;;;5013960;28;20029;-42
2021/05/17 12:07:41;;;;;;;18.67;2.85;;;;;;;;;;5016001;28;20052;-46
2021/05/17 12:10:07;;;;;;;30.40;2.97;;;;;;;;;;5017262;28;20494;-42
2021/05/17 12:12:32;;;;;;;9.70;1.77;;;;;;;;;;5017546;28;20044;-40
2021/05/17 12:15:04;;;;;;;7.35;2.25;;;;;;;;;;5018393;28;20057;-41
2021/05/17 12:17:33;;;;;;;6.70;3.40;;;;;;;;;;5012116;28;20064;-40
2021/05/17 12:20:00;;;;;;;13.38;3.03;;;;;;;;;;5017743;28;20240;-41
2021/05/17 12:22:36;;;;;;;3.97;1.55;;;;;;;;;;5014508;28;20033;-43
2021/05/17 12:25:03;;;;;;;4.40;1.60;;;;;;;;;;5013856;28;20124;-45
2021/05/17 12:27:29;;;;;;;2.30;0.93;;;;;;;;;;5012178;28;20510;-44
2021/05/17 12:29:54;;;;;;;1.75;0.88;;;;;;;;;;5015843;28;20068;-41
2021/05/17 12:32:38;;;;;;;7.60;2.33;;;;;;;;;;5012870;28;20037;-38
2021/05/17 12:35:16;;;;;;;8.88;2.60;;;;;;;;;;5013450;28;20065;-38
2021/05/17 12:37:46;;;;;;;14.82;2.30;;;;;;;;;;5013327;28;20550;-39
2021/05/17 12:40:13;;;;;;;10.83;2.47;;;;;;;;;;5013426;28;20029;-41
2021/05/17 12:42:38;;;;;;;8.43;3.50;;;;;;;;;;5013161;28;20271;-39
2021/05/17 12:45:05;;;;;;;4.78;1.85;;;;;;;;;;5020707;28;20393;-39
2021/05/17 12:47:37;;;;;;;7.38;2.63;;;;;;;;;;5021487;28;20049;-38
2021/05/17 12:50:02;;;;;;;7.22;1.88;;;;;;;;;;5018551;28;20026;-40
2021/05/17 12:52:29;;;;;;;6.75;1.45;;;;;;;;;;5020397;28;20052;-38
2021/05/17 12:55:07;;;;;;;4.18;1.42;;;;;;;;;;5000209;28;20060;-39
2021/05/17 12:57:48;;;;;;;5.07;0.77;;;;;;;;;;5016878;28;20120;-38
2021/05/17 13:00:16;;;;;;;7.72;2.83;;;;;;;;;;5018212;28;20064;-45
2021/05/17 13:02:41;;;;;;;3.78;1.55;;;;;;;;;;5017313;28;20085;-42
2021/05/17 13:05:07;;;;;;;8.02;2.47;;;;;;;;;;5019109;28;20030;-40
2021/05/17 13:07:33;;;;;;;6.45;2.10;;;;;;;;;;5020836;28;20041;-41
2021/05/17 13:09:58;;;;;;;6.75;1.38;;;;;;;;;;5019973;28;20026;-40
2021/05/17 13:12:24;;;;;;;9.13;2.35;;;;;;;;;;5017711;28;20112;-39
2021/05/17 13:14:49;;;;;;;10.38;1.63;;;;;;;;;;5017726;28;20045;-45
2021/05/17 13:17:18;;;;;;;12.75;2.63;;;;;;;;;;5019589;28;20029;-43
2021/05/17 13:30:30;;;;;;;4.63;1.10;;;;;;;;;;5020865;28;20039;-40
2021/05/17 13:32:56;;;;;;;11.05;6.75;;;;;;;;;;5019101;28;20499;-42
2021/05/17 13:35:22;;;;;;;3.63;1.95;;;;;;;;;;5020978;28;20046;-41
2021/05/17 13:37:47;;;;;;;11.15;2.40;;;;;;;;;;5020546;28;20038;-41
2021/05/17 13:40:13;;;;;;;8.82;2.22;;;;;;;;;;5023210;28;20041;-42
2021/05/17 13:42:39;;;;;;;4.53;2.17;;;;;;;;;;5019498;28;20114;-45
2021/05/17 13:45:06;;;;;;;6.78;3.67;;;;;;;;;;5018766;28;20081;-42
2021/05/17 13:47:31;;;;;;;7.47;2.15;;;;;;;;;;5024409;28;20025;-44
2021/05/17 13:49:56;;;;;;;3.55;2.10;;;;;;;;;;5021197;28;20036;-44
2021/05/17 13:52:22;;;;;;;14.30;2.42;;;;;;;;;;5014852;28;20037;-42
2021/05/17 13:54:47;;;;;;;7.25;2.55;;;;;;;;;;5019599;28;20057;-41
2021/05/17 13:57:13;;;;;;;9.45;2.88;;;;;;;;;;5020101;28;20113;-47
2021/05/17 13:59:38;;;;;;;7.05;2.33;;;;;;;;;;5019802;28;20092;-43
2021/05/17 14:02:04;;;;;;;4.93;1.60;;;;;;;;;;5018945;28;20029;-43
2021/05/17 14:04:30;;;;;;;4.45;2.58;;;;;;;;;;5019117;28;20297;-45
2021/05/17 14:06:55;;;;;;;8.02;1.60;;;;;;;;;;5018768;28;20032;-43
2021/05/17 14:09:21;;;;;;;11.32;2.13;;;;;;;;;;5019030;28;20129;-45
2021/05/17 14:11:47;;;;;;;5.25;2.42;;;;;;;;;;5022484;28;20049;-46
2021/05/17 14:14:13;;;;;;;7.82;2.30;;;;;;;;;;5020865;28;20529;-43
2021/05/17 14:16:38;;;;;;;7.97;3.38;;;;;;;;;;5020904;28;20033;-43
2021/05/17 14:19:04;;;;;;;10.85;4.38;;;;;;;;;;5019332;28;20390;-43
2021/05/17 14:21:29;;;;;;;19.25;4.68;;;;;;;;;;5018976;28;20037;-45
2021/05/17 14:23:55;;;;;;;9.02;2.65;;;;;;;;;;5019739;28;20502;-39
2021/05/17 14:26:20;;;;;;;5.97;2.72;;;;;;;;;;5020530;28;20522;-40
2021/05/17 14:28:47;;;;;;;16.40;3.63;;;;;;;;;;5018745;28;20287;-39
2021/05/17 14:31:14;;;;;;;8.77;3.20;;;;;;;;;;5020153;28;20099;-39
2021/05/17 14:33:40;;;;;;;6.18;2.42;;;;;;;;;;5018540;28;20116;-40
2021/05/17 14:36:05;;;;;;;4.65;2.53;;;;;;;;;;5019684;28;20120;-41
2021/05/17 14:38:30;;;;;;;6.57;2.90;;;;;;;;;;5023864;28;20040;-40
2021/05/17 14:40:56;;;;;;;8.38;2.28;;;;;;;;;;5014279;28;20033;-41
2021/05/17 14:43:21;;;;;;;15.98;1.80;;;;;;;;;;5019445;28;20482;-38
2021/05/17 14:45:46;;;;;;;11.55;2.70;;;;;;;;;;5016734;28;20461;-39
2021/05/17 14:48:12;;;;;;;18.73;3.80;;;;;;;;;;5019567;28;20029;-39
2021/05/17 14:50:37;;;;;;;7.32;1.63;;;;;;;;;;5018697;28;20022;-40
2021/05/17 14:53:02;;;;;;;6.05;2.65;;;;;;;;;;5020654;28;20142;-39
2021/05/17 14:55:28;;;;;;;5.22;1.70;;;;;;;;;;5021187;28;20159;-40
2021/05/17 14:57:53;;;;;;;7.40;2.45;;;;;;;;;;5016410;28;20029;-39
2021/05/17 15:00:19;;;;;;;5.80;1.88;;;;;;;;;;5016472;28;20065;-38
2021/05/17 15:02:45;;;;;;;4.65;1.98;;;;;;;;;;5018599;28;20089;-40
2021/05/17 15:05:11;;;;;;;7.15;3.47;;;;;;;;;;5016554;28;20042;-42
2021/05/17 15:07:36;;;;;;;8.93;2.85;;;;;;;;;;5019491;28;20029;-39
2021/05/17 15:10:03;;;;;;;6.13;1.88;;;;;;;;;;5019518;28;20060;-40
2021/05/17 15:12:28;;;;;;;7.50;2.72;;;;;;;;;;5017670;28;20037;-39
2021/05/17 15:14:54;;;;;;;5.28;1.85;;;;;;;;;;5016038;28;20487;-40
2021/05/17 15:17:19;;;;;;;1.90;1.05;;;;;;;;;;5016509;28;20041;-39
2021/05/17 15:19:44;;;;;;;7.97;1.67;;;;;;;;;;5016110;28;20041;-39